Time;durP1;ratioP1;P1;durP2;ratioP2;P2;SDS_P1;SDS_P2;PMS_P1;PMS_P2;Temp;Humidity;BMP_temperature;BMP_pressure;BME280_temperature;BME280_humidity;BME280_pressure;Samples;Min_cycle;Max_cycle;Signal;HPM_P1;HPM_P2
2022/03/15 00:00:14;;;;;;;12.90;9.53;;;2.60;58.10;;;;;;6274285;28;20224;-61
2022/03/15 00:03:15;;;;;;;12.53;9.50;;;2.50;58.00;;;;;;6257975;28;20229;-61
2022/03/15 00:06:16;;;;;;;14.63;9.63;;;2.50;58.10;;;;;;6285310;28;20204;-63
2022/03/15 00:09:17;;;;;;;11.63;8.87;;;2.40;58.50;;;;;;6254190;28;20205;-63
2022/03/15 00:12:18;;;;;;;14.87;9.40;;;2.30;58.90;;;;;;6257095;28;20288;-63
2022/03/15 00:15:19;;;;;;;12.97;9.43;;;2.30;58.90;;;;;;6290825;28;20221;-62
2022/03/15 00:18:20;;;;;;;15.23;9.43;;;2.30;59.10;;;;;;6294459;28;20228;-62
2022/03/15 00:21:21;;;;;;;11.40;9.30;;;2.20;59.20;;;;;;6265487;28;20216;-62
2022/03/15 00:24:22;;;;;;;13.03;9.27;;;2.20;59.10;;;;;;6251900;28;20244;-62
2022/03/15 00:27:23;;;;;;;10.27;8.00;;;2.30;59.60;;;;;;6281788;28;20541;-62
2022/03/15 00:30:24;;;;;;;13.17;9.40;;;2.20;59.50;;;;;;6264871;28;20200;-62
2022/03/15 00:33:26;;;;;;;13.93;9.17;;;2.20;59.50;;;;;;6265450;28;20227;-62
2022/03/15 00:36:27;;;;;;;12.10;8.50;;;2.20;59.50;;;;;;6281496;28;20196;-62
2022/03/15 00:39:28;;;;;;;14.20;10.00;;;2.10;59.70;;;;;;6257975;28;20221;-64
2022/03/15 00:42:28;;;;;;;13.00;8.47;;;2.10;59.80;;;;;;6273000;28;20192;-64
2022/03/15 00:45:32;;;;;;;16.13;9.47;;;2.10;59.90;;;;;;6256468;28;20207;-64
2022/03/15 00:48:33;;;;;;;13.43;9.20;;;2.00;59.80;;;;;;6282290;28;20201;-64
2022/03/15 00:51:34;;;;;;;12.47;8.97;;;2.10;59.90;;;;;;6264674;28;20231;-65
2022/03/15 00:54:36;;;;;;;14.30;9.47;;;2.10;60.10;;;;;;6258949;28;20194;-65
2022/03/15 00:57:37;;;;;;;12.77;8.07;;;2.00;60.30;;;;;;6273387;28;20203;-65
2022/03/15 01:00:38;;;;;;;11.77;8.77;;;2.10;60.30;;;;;;6283740;28;20205;-62
2022/03/15 01:03:41;;;;;;;13.37;9.43;;;2.10;60.20;;;;;;6265493;28;20185;-62
2022/03/15 01:06:42;;;;;;;14.73;9.80;;;2.10;60.40;;;;;;6264500;28;20250;-62
2022/03/15 01:09:43;;;;;;;13.00;9.00;;;2.00;60.60;;;;;;6275513;28;20192;-62
2022/03/15 01:12:44;;;;;;;13.97;8.70;;;2.00;60.50;;;;;;6264343;28;20200;-62
2022/03/15 01:15:45;;;;;;;12.63;8.80;;;2.00;60.70;;;;;;6250967;28;20241;-62
2022/03/15 01:18:46;;;;;;;12.67;9.20;;;2.00;60.80;;;;;;6264213;28;20227;-62
2022/03/15 01:21:47;;;;;;;15.27;10.03;;;2.00;60.70;;;;;;6280787;28;20197;-62
2022/03/15 01:24:48;;;;;;;11.63;8.63;;;2.00;60.60;;;;;;6280364;28;20335;-62
2022/03/15 01:27:48;;;;;;;13.10;8.97;;;2.00;60.70;;;;;;6281055;28;20180;-62
2022/03/15 01:30:50;;;;;;;13.80;9.00;;;2.00;60.70;;;;;;6279041;28;20192;-64
2022/03/15 01:33:52;;;;;;;12.10;9.47;;;1.90;61.10;;;;;;6280890;28;20174;-64
2022/03/15 01:36:53;;;;;;;14.80;9.63;;;1.90;61.30;;;;;;6256832;28;20196;-64
2022/03/15 01:39:55;;;;;;;10.50;8.17;;;1.90;61.20;;;;;;6296825;28;20214;-64
2022/03/15 01:42:55;;;;;;;12.60;9.30;;;2.00;61.10;;;;;;6280582;28;20184;-61
2022/03/15 01:45:57;;;;;;;14.27;9.77;;;2.00;61.00;;;;;;6277646;28;20199;-61
2022/03/15 01:48:57;;;;;;;16.10;9.00;;;2.10;60.80;;;;;;6280456;28;20199;-62
2022/03/15 01:51:58;;;;;;;13.13;9.13;;;2.00;61.20;;;;;;6247729;28;20198;-62
2022/03/15 01:54:59;;;;;;;11.90;8.63;;;2.00;61.20;;;;;;6267281;28;20197;-62
2022/03/15 01:58:00;;;;;;;13.70;9.70;;;2.00;61.10;;;;;;6268006;28;20228;-62
2022/03/15 02:01:01;;;;;;;10.53;8.83;;;2.00;61.20;;;;;;6268693;28;20186;-61
2022/03/15 02:04:02;;;;;;;13.53;9.50;;;2.00;61.30;;;;;;6284854;28;20197;-61
2022/03/15 02:07:06;;;;;;;12.43;9.73;;;2.00;61.30;;;;;;6282518;28;20709;-61
2022/03/15 02:10:07;;;;;;;12.60;9.07;;;2.00;61.50;;;;;;6292268;28;20276;-61
2022/03/15 02:13:09;;;;;;;11.83;8.23;;;1.90;62.10;;;;;;6249936;28;20205;-61
2022/03/15 02:16:10;;;;;;;12.90;8.90;;;1.90;62.10;;;;;;6285458;28;20251;-61
2022/03/15 02:19:12;;;;;;;11.53;9.60;;;1.90;62.40;;;;;;6278400;28;20245;-61
2022/03/15 02:22:14;;;;;;;12.80;9.53;;;1.80;62.50;;;;;;6284484;28;20272;-61
2022/03/15 02:25:15;;;;;;;13.57;9.87;;;1.80;62.70;;;;;;6267234;28;20240;-61
2022/03/15 02:28:16;;;;;;;12.83;9.03;;;1.90;62.50;;;;;;6268266;28;20192;-61
2022/03/15 02:31:17;;;;;;;12.40;8.87;;;2.00;62.40;;;;;;6268340;28;20197;-61
2022/03/15 02:34:18;;;;;;;11.43;8.40;;;2.00;62.30;;;;;;6268519;28;20208;-61
2022/03/15 02:37:19;;;;;;;12.80;9.43;;;2.00;62.10;;;;;;6260957;28;20225;-61
2022/03/15 02:40:20;;;;;;;9.77;7.93;;;2.10;62.50;;;;;;6259485;28;20230;-62
2022/03/15 02:43:21;;;;;;;11.33;8.57;;;2.00;62.80;;;;;;6259540;28;20226;-63
2022/03/15 02:46:29;;;;;;;12.03;9.37;;;2.10;62.50;;;;;;6264014;28;20189;-63
2022/03/15 02:49:31;;;;;;;11.00;8.30;;;2.10;62.40;;;;;;6275978;28;20201;-63
2022/03/15 02:52:32;;;;;;;14.93;9.17;;;2.20;62.30;;;;;;6300832;28;20195;-63
2022/03/15 02:55:34;;;;;;;15.70;10.10;;;2.30;62.40;;;;;;6262042;28;20200;-63
2022/03/15 02:58:35;;;;;;;14.63;9.40;;;2.20;62.50;;;;;;6300991;28;20240;-63
2022/03/15 03:01:36;;;;;;;13.10;9.23;;;2.20;62.60;;;;;;6267283;28;20190;-63
2022/03/15 03:04:36;;;;;;;12.60;8.70;;;2.10;62.60;;;;;;6283583;28;20198;-63
2022/03/15 03:07:38;;;;;;;12.83;8.67;;;2.10;62.60;;;;;;6267135;28;20215;-63
2022/03/15 03:10:38;;;;;;;13.37;9.30;;;2.10;62.70;;;;;;6258038;28;20196;-63
2022/03/15 03:13:44;;;;;;;12.07;8.93;;;2.10;62.90;;;;;;6283407;28;20180;-62
2022/03/15 03:16:45;;;;;;;12.50;8.73;;;2.10;62.90;;;;;;6266489;28;20204;-62
2022/03/15 03:19:45;;;;;;;12.43;9.57;;;2.10;63.10;;;;;;6271175;28;20217;-62
2022/03/15 03:22:47;;;;;;;11.23;8.40;;;2.10;63.10;;;;;;6263594;28;20186;-62
2022/03/15 03:25:49;;;;;;;14.73;9.30;;;2.10;63.10;;;;;;6258045;28;20237;-62
2022/03/15 03:28:51;;;;;;;13.67;10.13;;;2.10;63.30;;;;;;6274806;28;20185;-63
2022/03/15 03:31:55;;;;;;;15.90;9.80;;;2.10;63.30;;;;;;6258754;28;20200;-63
2022/03/15 03:34:57;;;;;;;12.13;8.93;;;2.10;63.10;;;;;;6257995;28;20192;-63
2022/03/15 03:37:58;;;;;;;16.80;9.00;;;2.10;63.20;;;;;;6291690;28;20433;-63
2022/03/15 03:41:00;;;;;;;12.93;9.63;;;2.10;63.30;;;;;;6266306;28;20194;-63
2022/03/15 03:44:01;;;;;;;12.83;9.27;;;2.00;63.50;;;;;;6250569;28;20193;-63
2022/03/15 03:47:03;;;;;;;11.70;8.63;;;2.00;63.70;;;;;;6278101;28;20190;-62
2022/03/15 03:50:08;;;;;;;14.40;9.30;;;2.00;63.60;;;;;;6274743;28;20190;-62
2022/03/15 03:53:09;;;;;;;12.67;8.43;;;2.00;63.60;;;;;;6251505;28;20259;-62
2022/03/15 03:56:10;;;;;;;12.97;9.23;;;2.10;63.60;;;;;;6257820;28;20198;-62
2022/03/15 03:59:11;;;;;;;13.90;9.57;;;2.10;63.80;;;;;;6286391;28;20225;-62
2022/03/15 04:02:12;;;;;;;11.97;8.30;;;2.00;63.70;;;;;;6274370;28;20190;-62
2022/03/15 04:05:15;;;;;;;11.57;8.33;;;2.00;63.60;;;;;;6290803;28;20276;-62
2022/03/15 04:08:18;;;;;;;11.67;8.73;;;2.00;63.50;;;;;;6264978;28;20201;-63
2022/03/15 04:11:19;;;;;;;10.47;7.53;;;2.00;63.50;;;;;;6287917;28;20190;-64
2022/03/15 04:14:20;;;;;;;12.33;8.47;;;2.00;63.60;;;;;;6250084;28;20205;-63
2022/03/15 04:17:22;;;;;;;10.83;9.03;;;2.00;63.80;;;;;;6306536;28;20236;-63
2022/03/15 04:20:23;;;;;;;12.63;9.00;;;2.00;64.00;;;;;;6266578;28;20263;-64
2022/03/15 04:23:24;;;;;;;16.23;9.60;;;2.00;64.20;;;;;;6249208;28;20178;-63
2022/03/15 04:26:26;;;;;;;13.00;9.80;;;2.00;64.20;;;;;;6240917;28;20233;-62
2022/03/15 04:29:27;;;;;;;12.17;9.10;;;2.10;64.10;;;;;;6273837;28;20197;-62
2022/03/15 04:32:28;;;;;;;12.73;8.73;;;2.00;64.30;;;;;;6257033;28;20181;-62
2022/03/15 04:35:29;;;;;;;12.70;9.03;;;1.90;64.50;;;;;;6273453;28;20201;-62
2022/03/15 04:38:30;;;;;;;14.83;10.07;;;1.90;64.20;;;;;;6255435;28;20510;-62
2022/03/15 04:41:31;;;;;;;12.63;9.30;;;1.90;64.30;;;;;;6273059;28;20190;-62
2022/03/15 04:44:32;;;;;;;10.03;7.83;;;1.90;64.30;;;;;;6285239;28;20260;-63
2022/03/15 04:47:32;;;;;;;13.67;8.47;;;1.80;64.70;;;;;;6273256;28;20655;-62
2022/03/15 04:50:34;;;;;;;12.77;9.03;;;1.80;64.60;;;;;;6271702;28;20198;-62
2022/03/15 04:53:35;;;;;;;11.77;9.70;;;1.80;64.80;;;;;;6263326;28;20197;-62
2022/03/15 04:56:38;;;;;;;12.77;9.33;;;1.80;64.80;;;;;;6269337;28;20198;-61
2022/03/15 04:59:39;;;;;;;14.20;9.30;;;1.80;64.80;;;;;;6270903;28;20221;-62
2022/03/15 05:02:41;;;;;;;11.40;9.40;;;1.80;64.90;;;;;;6290118;28;20193;-61
2022/03/15 05:05:44;;;;;;;10.47;8.50;;;1.80;65.00;;;;;;6284604;28;20196;-66
2022/03/15 05:08:45;;;;;;;13.70;9.10;;;1.80;64.80;;;;;;6281875;28;20207;-66
2022/03/15 05:11:46;;;;;;;12.17;8.97;;;1.80;64.90;;;;;;6276302;28;20201;-66
2022/03/15 05:14:49;;;;;;;14.07;9.67;;;1.80;65.10;;;;;;6269743;28;20194;-67
2022/03/15 05:17:50;;;;;;;16.40;10.20;;;1.80;65.20;;;;;;6269168;28;20200;-66
2022/03/15 05:20:51;;;;;;;11.83;9.13;;;1.90;65.20;;;;;;6283197;28;20208;-66
2022/03/15 05:23:53;;;;;;;12.17;9.00;;;1.90;65.00;;;;;;6280168;28;20193;-63
2022/03/15 05:26:54;;;;;;;12.47;9.10;;;1.90;65.10;;;;;;6287730;28;20292;-64
2022/03/15 05:29:55;;;;;;;13.97;9.57;;;1.90;65.10;;;;;;6251689;28;20198;-62
2022/03/15 05:32:56;;;;;;;11.10;8.23;;;2.00;64.80;;;;;;6271024;28;20201;-61
2022/03/15 05:35:57;;;;;;;15.33;9.40;;;2.10;64.40;;;;;;6281012;28;20260;-63
2022/03/15 05:38:58;;;;;;;13.00;8.90;;;2.30;64.20;;;;;;6281574;28;20220;-60
2022/03/15 05:41:59;;;;;;;13.47;9.10;;;2.40;63.90;;;;;;6278934;28;20197;-60
2022/03/15 05:45:00;;;;;;;13.77;8.57;;;2.50;63.80;;;;;;6297282;28;20191;-60
2022/03/15 05:48:01;;;;;;;13.20;8.60;;;2.50;63.50;;;;;;6278998;28;20201;-59
2022/03/15 05:51:01;;;;;;;11.70;9.03;;;2.60;63.40;;;;;;6299945;28;20197;-61
2022/03/15 05:54:04;;;;;;;13.17;9.27;;;2.50;63.90;;;;;;6284091;28;20206;-61
2022/03/15 05:57:05;;;;;;;12.27;8.50;;;2.60;63.70;;;;;;6299029;28;20200;-61
2022/03/15 06:00:07;;;;;;;10.90;8.20;;;2.70;63.40;;;;;;6277701;28;20222;-62
2022/03/15 06:03:13;;;;;;;13.20;9.20;;;2.80;63.00;;;;;;6302953;28;20225;-62
2022/03/15 06:06:15;;;;;;;15.70;9.47;;;2.80;63.10;;;;;;6282606;28;20190;-62
2022/03/15 06:09:16;;;;;;;13.93;8.83;;;2.90;62.90;;;;;;6281832;28;20197;-62
2022/03/15 06:12:16;;;;;;;16.97;9.47;;;2.90;62.80;;;;;;6288610;28;20221;-62
2022/03/15 06:15:18;;;;;;;12.60;8.87;;;3.00;62.90;;;;;;6267594;28;20251;-62
2022/03/15 06:18:19;;;;;;;11.17;8.63;;;3.00;63.20;;;;;;6270942;28;20251;-62
2022/03/15 06:21:20;;;;;;;14.50;9.43;;;3.10;63.00;;;;;;6253495;28;20193;-63
2022/03/15 06:24:21;;;;;;;12.23;8.73;;;3.30;62.80;;;;;;6295696;28;20210;-63
2022/03/15 06:27:21;;;;;;;12.93;9.50;;;3.30;62.70;;;;;;6299781;28;20299;-63
2022/03/15 06:30:23;;;;;;;13.43;9.60;;;3.50;62.30;;;;;;6297309;28;20200;-63
2022/03/15 06:33:24;;;;;;;15.93;9.40;;;3.50;62.20;;;;;;6297655;28;20191;-62
2022/03/15 06:36:25;;;;;;;17.10;9.83;;;3.60;62.00;;;;;;6286918;28;20197;-61
2022/03/15 06:39:26;;;;;;;14.37;8.83;;;3.70;62.40;;;;;;6292446;28;20220;-62
2022/03/15 06:42:28;;;;;;;14.60;8.53;;;3.80;62.20;;;;;;6287826;28;20249;-62
2022/03/15 06:45:28;;;;;;;14.23;10.20;;;3.80;61.70;;;;;;6298083;28;20196;-62
2022/03/15 06:48:29;;;;;;;14.30;10.00;;;3.80;61.10;;;;;;6305100;28;20196;-62
2022/03/15 06:51:30;;;;;;;17.57;10.50;;;3.80;61.40;;;;;;6305066;28;20197;-62
2022/03/15 06:54:32;;;;;;;14.67;10.00;;;3.80;61.70;;;;;;6286597;28;20287;-62
2022/03/15 06:57:34;;;;;;;19.07;10.07;;;4.10;61.50;;;;;;6292525;28;20195;-62
2022/03/15 07:00:35;;;;;;;16.77;10.13;;;4.20;61.20;;;;;;6308821;28;20227;-63
2022/03/15 07:03:36;;;;;;;13.43;10.23;;;4.40;59.80;;;;;;6293637;28;20184;-61
2022/03/15 07:06:37;;;;;;;14.10;9.57;;;4.60;58.00;;;;;;6289340;28;20196;-61
2022/03/15 07:09:38;;;;;;;13.10;9.13;;;4.80;58.60;;;;;;6297015;28;20213;-61
2022/03/15 07:12:39;;;;;;;12.20;8.87;;;5.00;59.20;;;;;;6291669;28;20203;-62
2022/03/15 07:15:39;;;;;;;11.47;8.77;;;5.30;59.50;;;;;;6308759;28;20195;-61
2022/03/15 07:18:40;;;;;;;12.83;9.10;;;5.40;58.90;;;;;;6294781;28;20212;-61
2022/03/15 07:21:41;;;;;;;12.83;9.13;;;5.70;58.40;;;;;;6250957;28;20194;-58
2022/03/15 07:24:42;;;;;;;15.53;10.50;;;5.80;58.00;;;;;;6309775;28;20315;-60
2022/03/15 07:27:43;;;;;;;14.70;10.50;;;6.00;55.20;;;;;;6308052;28;20276;-60
2022/03/15 07:30:44;;;;;;;11.90;8.93;;;6.10;56.00;;;;;;6242277;28;20229;-59
2022/03/15 07:33:45;;;;;;;14.50;10.13;;;6.20;53.80;;;;;;6278139;28;20207;-60
2022/03/15 07:36:45;;;;;;;12.67;8.87;;;6.30;52.80;;;;;;6267024;28;20209;-60
2022/03/15 07:39:46;;;;;;;13.77;9.53;;;6.40;51.60;;;;;;6301534;28;20303;-60
2022/03/15 07:42:48;;;;;;;12.80;8.63;;;6.60;51.80;;;;;;6292855;28;20192;-60
2022/03/15 07:45:50;;;;;;;16.77;9.50;;;6.60;51.20;;;;;;6301538;28;20180;-60
2022/03/15 07:48:50;;;;;;;13.00;9.23;;;6.60;50.60;;;;;;6291943;28;20290;-60
2022/03/15 07:51:51;;;;;;;15.60;9.73;;;6.80;50.30;;;;;;6314083;28;20188;-60
2022/03/15 07:54:52;;;;;;;14.80;9.10;;;6.90;50.30;;;;;;6294357;28;20184;-60
2022/03/15 07:57:53;;;;;;;13.77;10.20;;;7.00;50.00;;;;;;6297380;28;20321;-60
2022/03/15 08:00:56;;;;;;;12.93;9.77;;;7.10;49.30;;;;;;6285116;28;20198;-60
2022/03/15 08:03:57;;;;;;;14.50;10.53;;;7.20;49.30;;;;;;6284255;28;20211;-60
2022/03/15 08:06:59;;;;;;;16.10;10.37;;;7.30;49.10;;;;;;6304076;28;20188;-60
2022/03/15 08:09:59;;;;;;;14.33;10.63;;;7.40;48.60;;;;;;6277909;28;20255;-60
2022/03/15 08:13:00;;;;;;;15.17;10.30;;;7.60;48.00;;;;;;6272563;28;20188;-60
2022/03/15 08:16:05;;;;;;;17.63;11.03;;;7.80;47.00;;;;;;6306885;28;20329;-60
2022/03/15 08:19:07;;;;;;;19.30;10.97;;;7.90;46.80;;;;;;6306851;28;20224;-61
2022/03/15 08:22:08;;;;;;;17.13;10.30;;;8.00;47.90;;;;;;6269306;28;20214;-60
2022/03/15 08:25:09;;;;;;;16.00;11.30;;;8.20;47.40;;;;;;6275247;28;20241;-60
2022/03/15 08:28:09;;;;;;;20.17;10.90;;;8.30;47.20;;;;;;6297174;28;20295;-60
2022/03/15 08:31:10;;;;;;;13.20;9.97;;;8.50;46.80;;;;;;6298683;28;20211;-60
2022/03/15 08:34:13;;;;;;;14.40;10.10;;;8.50;46.40;;;;;;6284484;28;20212;-60
2022/03/15 08:37:14;;;;;;;16.33;10.80;;;8.60;46.40;;;;;;6263250;28;20193;-60
2022/03/15 08:40:16;;;;;;;14.87;11.40;;;8.70;47.20;;;;;;6286743;28;20218;-60
2022/03/15 08:43:17;;;;;;;18.83;11.47;;;9.00;45.40;;;;;;6281224;28;20201;-60
2022/03/15 08:46:18;;;;;;;14.77;10.57;;;9.20;44.80;;;;;;6293780;28;20200;-60
2022/03/15 08:49:20;;;;;;;16.53;11.30;;;9.40;44.00;;;;;;6290297;28;20188;-60
2022/03/15 08:52:20;;;;;;;18.17;11.00;;;9.20;45.30;;;;;;6302009;28;20207;-60
2022/03/15 08:55:22;;;;;;;18.53;11.27;;;9.30;44.10;;;;;;6295632;28;20203;-60
2022/03/15 08:58:23;;;;;;;15.63;11.47;;;9.50;43.70;;;;;;6298930;28;20223;-60
2022/03/15 09:01:24;;;;;;;19.67;11.40;;;9.60;43.30;;;;;;6317257;28;20188;-60
2022/03/15 09:04:25;;;;;;;16.60;10.20;;;9.90;42.60;;;;;;6303041;28;20194;-60
2022/03/15 09:07:27;;;;;;;14.57;11.07;;;9.90;42.50;;;;;;6311878;28;20186;-60
2022/03/15 09:10:28;;;;;;;15.47;10.73;;;9.90;41.50;;;;;;6298254;28;20197;-61
2022/03/15 09:13:29;;;;;;;14.93;10.50;;;10.20;42.30;;;;;;6313973;28;20188;-60
2022/03/15 09:16:30;;;;;;;14.53;10.77;;;10.30;42.10;;;;;;6299114;28;20266;-61
2022/03/15 09:19:32;;;;;;;14.73;10.43;;;10.30;40.80;;;;;;6302382;28;20219;-61
2022/03/15 09:22:33;;;;;;;15.47;10.67;;;10.60;41.00;;;;;;6304290;28;20188;-61
2022/03/15 09:25:34;;;;;;;16.97;10.67;;;10.70;39.60;;;;;;6289743;28;20289;-60
2022/03/15 09:28:35;;;;;;;14.87;10.97;;;10.80;40.30;;;;;;6284969;28;20201;-61
2022/03/15 09:31:36;;;;;;;18.43;10.90;;;10.90;39.40;;;;;;6309308;28;20193;-61
2022/03/15 09:34:38;;;;;;;16.00;11.67;;;11.20;38.20;;;;;;6310866;28;20200;-61
2022/03/15 09:37:41;;;;;;;15.03;10.80;;;11.20;38.60;;;;;;6315190;28;20193;-61
2022/03/15 09:40:43;;;;;;;19.03;11.67;;;11.30;39.10;;;;;;6289892;28;20220;-60
2022/03/15 09:43:46;;;;;;;17.23;11.83;;;11.40;39.10;;;;;;6295469;28;20196;-60
2022/03/15 09:46:50;;;;;;;15.57;12.03;;;11.50;37.80;;;;;;6282513;28;20193;-59
2022/03/15 09:49:53;;;;;;;26.60;14.67;;;11.60;38.30;;;;;;6280575;28;20201;-61
2022/03/15 09:52:56;;;;;;;25.20;14.77;;;11.80;37.40;;;;;;6280687;28;20185;-60
2022/03/15 09:55:57;;;;;;;29.23;14.47;;;11.80;36.90;;;;;;6287610;28;20204;-61
2022/03/15 09:58:58;;;;;;;22.13;14.27;;;11.80;37.20;;;;;;6262440;28;20294;-61
2022/03/15 10:02:00;;;;;;;22.97;14.87;;;11.80;37.20;;;;;;6277020;28;20185;-61
2022/03/15 10:05:01;;;;;;;24.33;14.17;;;12.00;37.00;;;;;;6281937;28;20192;-60
2022/03/15 10:08:03;;;;;;;17.87;15.10;;;12.00;36.40;;;;;;6254541;28;20282;-61
2022/03/15 10:11:05;;;;;;;19.77;15.87;;;12.20;36.80;;;;;;6315472;28;20188;-61
2022/03/15 10:14:06;;;;;;;23.73;15.53;;;12.40;37.40;;;;;;6300889;28;20189;-61
2022/03/15 10:17:07;;;;;;;22.03;15.03;;;12.80;35.40;;;;;;6300814;28;20185;-61
2022/03/15 10:20:09;;;;;;;19.93;15.43;;;12.80;35.30;;;;;;6317415;28;20215;-61
2022/03/15 10:23:10;;;;;;;21.30;15.93;;;13.00;34.80;;;;;;6292628;28;20216;-61
2022/03/15 10:26:24;;;;;;;27.87;18.67;;;13.10;36.30;;;;;;6333645;28;20258;-60
2022/03/15 10:29:28;;;;;;;22.93;15.37;;;13.30;35.10;;;;;;6300296;28;20265;-60
2022/03/15 10:32:29;;;;;;;20.43;15.77;;;13.30;34.90;;;;;;6300750;28;20194;-61
2022/03/15 10:35:36;;;;;;;21.67;14.80;;;13.50;34.90;;;;;;6279908;28;20201;-61
2022/03/15 10:38:48;;;;;;;18.53;15.20;;;13.50;34.10;;;;;;6300592;28;20213;-61
2022/03/15 10:41:54;;;;;;;27.93;16.07;;;13.50;34.50;;;;;;6284337;28;20343;-60
2022/03/15 10:44:57;;;;;;;22.63;16.07;;;13.70;34.00;;;;;;6297113;28;20193;-60
2022/03/15 10:47:58;;;;;;;24.47;15.30;;;13.70;34.40;;;;;;6247501;28;20386;-59
2022/03/15 10:51:08;;;;;;;24.20;15.10;;;13.80;34.80;;;;;;6304540;28;20194;-60
2022/03/15 10:54:09;;;;;;;19.47;15.13;;;13.80;34.10;;;;;;6277848;28;20185;-61
2022/03/15 10:57:10;;;;;;;18.20;14.20;;;14.00;33.70;;;;;;6291961;28;20228;-61
2022/03/15 11:00:12;;;;;;;21.23;15.27;;;14.10;34.10;;;;;;6287624;28;20249;-60
2022/03/15 11:03:15;;;;;;;23.13;16.23;;;14.30;34.10;;;;;;6286276;28;20193;-60
2022/03/15 11:06:30;;;;;;;18.80;14.87;;;14.20;32.90;;;;;;6286040;28;20185;-60
2022/03/15 11:09:32;;;;;;;19.53;13.60;;;14.30;33.10;;;;;;6306172;28;20200;-61
2022/03/15 11:12:34;;;;;;;22.50;13.90;;;14.40;32.50;;;;;;6300483;28;20193;-61
2022/03/15 11:15:40;;;;;;;20.20;15.10;;;14.70;33.50;;;;;;6305871;28;20288;-61
2022/03/15 11:18:41;;;;;;;20.73;15.10;;;14.80;31.80;;;;;;6284046;28;20222;-61
2022/03/15 11:21:43;;;;;;;17.03;14.07;;;14.40;32.10;;;;;;6282143;28;20180;-61
2022/03/15 11:24:53;;;;;;;16.37;13.37;;;14.90;31.80;;;;;;6295288;28;20241;-62
2022/03/15 11:27:56;;;;;;;17.10;13.63;;;15.10;31.80;;;;;;6299439;28;20186;-61
2022/03/15 11:30:57;;;;;;;16.47;13.43;;;15.00;31.10;;;;;;6266505;28;20254;-61
2022/03/15 11:34:00;;;;;;;21.03;12.83;;;15.00;31.20;;;;;;6331982;28;20243;-62
2022/03/15 11:37:02;;;;;;;16.50;12.83;;;15.30;30.20;;;;;;6298849;28;20193;-61
2022/03/15 11:40:06;;;;;;;19.20;13.87;;;15.30;30.00;;;;;;6295378;28;20245;-61
2022/03/15 11:43:34;;;;;;;19.40;12.50;;;15.50;30.30;;;;;;6298944;28;20190;-63
2022/03/15 11:46:43;;;;;;;17.87;11.83;;;15.20;30.30;;;;;;6293162;28;20197;-62
2022/03/15 11:49:54;;;;;;;17.07;11.97;;;15.30;30.00;;;;;;6303352;28;20208;-61
2022/03/15 11:53:38;;;;;;;16.10;12.43;;;15.10;29.70;;;;;;6309584;28;20196;-61
2022/03/15 11:56:53;;;;;;;18.03;13.03;;;15.00;30.60;;;;;;6270320;28;20194;-62
2022/03/15 11:59:56;;;;;;;15.63;11.80;;;14.70;31.10;;;;;;6298048;28;20209;-62
2022/03/15 12:03:02;;;;;;;14.30;11.40;;;14.80;31.10;;;;;;6287672;28;20189;-62
2022/03/15 12:06:03;;;;;;;13.77;10.90;;;14.80;31.20;;;;;;6320528;28;20212;-61
2022/03/15 12:09:12;;;;;;;15.43;11.17;;;14.80;31.10;;;;;;6299212;28;20192;-62
2022/03/15 12:12:16;;;;;;;14.83;11.90;;;14.50;31.40;;;;;;6319863;28;20239;-61
2022/03/15 12:15:23;;;;;;;14.43;11.03;;;14.60;32.00;;;;;;6305894;28;20335;-62
2022/03/15 12:19:10;;;;;;;16.67;11.57;;;14.40;32.30;;;;;;6303731;28;20307;-62
2022/03/15 12:22:24;;;;;;;13.87;10.93;;;14.10;32.50;;;;;;6292944;28;20205;-62
2022/03/15 12:25:36;;;;;;;14.47;12.33;;;14.10;33.60;;;;;;6310179;28;20228;-62
2022/03/15 12:28:37;;;;;;;15.13;11.53;;;13.90;32.90;;;;;;6292058;28;20738;-60
2022/03/15 12:31:47;;;;;;;19.07;12.57;;;13.80;33.10;;;;;;6288490;28;20201;-59
2022/03/15 12:34:55;;;;;;;12.60;11.10;;;13.80;33.00;;;;;;6317460;28;20284;-60
2022/03/15 12:38:08;;;;;;;17.00;12.37;;;13.80;33.30;;;;;;6314227;28;20240;-60
2022/03/15 12:41:08;;;;;;;15.60;12.23;;;13.50;33.80;;;;;;6300909;28;20219;-60
2022/03/15 12:44:10;;;;;;;18.13;11.90;;;13.60;33.60;;;;;;6291852;28;20188;-59
2022/03/15 12:47:12;;;;;;;14.57;10.70;;;13.60;34.20;;;;;;6312878;28;20177;-60
2022/03/15 12:50:13;;;;;;;15.90;11.70;;;13.50;34.30;;;;;;6296606;28;20197;-60
2022/03/15 12:53:17;;;;;;;14.57;11.20;;;13.60;34.30;;;;;;6322748;28;20225;-60
2022/03/15 12:56:27;;;;;;;16.20;11.67;;;13.70;34.30;;;;;;6314446;28;20281;-60
2022/03/15 12:59:28;;;;;;;12.87;10.53;;;13.80;35.10;;;;;;6304651;28;20240;-60
2022/03/15 13:02:30;;;;;;;14.80;11.53;;;13.90;34.50;;;;;;6298813;28;20184;-60
2022/03/15 13:05:32;;;;;;;12.37;9.47;;;13.80;34.90;;;;;;6320069;28;20219;-60
2022/03/15 13:08:39;;;;;;;13.93;10.60;;;14.00;34.30;;;;;;6314460;28;20192;-60
2022/03/15 13:11:47;;;;;;;13.53;10.70;;;14.00;33.80;;;;;;6298635;28;20235;-60
2022/03/15 13:14:53;;;;;;;13.80;10.03;;;14.10;34.60;;;;;;6292529;28;20202;-61
2022/03/15 13:17:59;;;;;;;11.73;10.10;;;14.00;34.40;;;;;;6239496;28;20187;-61
2022/03/15 13:21:08;;;;;;;14.07;10.77;;;14.00;33.40;;;;;;6295381;28;20225;-61
2022/03/15 13:24:10;;;;;;;13.97;9.77;;;14.10;33.60;;;;;;6309142;28;20181;-61
2022/03/15 13:27:11;;;;;;;13.90;9.80;;;14.00;34.60;;;;;;6310364;28;20251;-61
2022/03/15 13:30:15;;;;;;;15.47;10.67;;;14.00;34.90;;;;;;6302811;28;20193;-61
2022/03/15 13:33:42;;;;;;;15.73;10.33;;;14.00;35.00;;;;;;6315990;28;20242;-60
2022/03/15 13:36:45;;;;;;;11.87;8.87;;;14.00;35.20;;;;;;6312721;28;20225;-60
2022/03/15 13:39:46;;;;;;;12.10;8.97;;;13.80;35.30;;;;;;6309859;28;20218;-60
2022/03/15 13:42:47;;;;;;;12.83;9.97;;;13.80;35.20;;;;;;6338517;28;20187;-60
2022/03/15 13:45:49;;;;;;;13.27;9.50;;;13.80;35.10;;;;;;6288130;28;20280;-60
2022/03/15 13:48:52;;;;;;;13.97;9.20;;;13.80;35.00;;;;;;6297235;28;20225;-60
2022/03/15 13:52:05;;;;;;;12.13;9.30;;;13.70;35.40;;;;;;6316429;28;20189;-60
2022/03/15 13:55:10;;;;;;;15.27;10.63;;;13.70;35.90;;;;;;6323112;28;20197;-60
2022/03/15 13:58:11;;;;;;;12.20;9.13;;;13.50;35.90;;;;;;6304008;28;20196;-60
2022/03/15 14:01:12;;;;;;;11.33;8.87;;;13.30;36.60;;;;;;6305478;28;20212;-60
2022/03/15 14:04:15;;;;;;;13.70;10.50;;;13.50;36.20;;;;;;6308956;28;20185;-61
2022/03/15 14:07:22;;;;;;;10.90;8.47;;;13.30;35.90;;;;;;6320220;28;20193;-60
2022/03/15 14:10:23;;;;;;;12.47;9.63;;;13.30;36.50;;;;;;6285253;28;20189;-60
2022/03/15 14:13:25;;;;;;;14.30;9.90;;;13.30;37.10;;;;;;6268856;28;20192;-61
2022/03/15 14:16:35;;;;;;;11.57;8.87;;;13.20;37.50;;;;;;6300301;28;20194;-60
2022/03/15 14:19:51;;;;;;;13.60;9.77;;;13.20;37.30;;;;;;6314268;28;20315;-60
2022/03/15 14:22:53;;;;;;;11.73;9.30;;;13.10;37.20;;;;;;6300154;28;20201;-58
2022/03/15 14:26:01;;;;;;;11.90;9.10;;;13.10;38.10;;;;;;6313885;28;20319;-61
2022/03/15 14:29:08;;;;;;;11.20;8.47;;;13.10;38.20;;;;;;6325794;28;20235;-60
2022/03/15 14:32:12;;;;;;;8.30;7.43;;;13.00;38.80;;;;;;6314640;28;20197;-60
2022/03/15 14:35:14;;;;;;;11.00;8.47;;;12.90;38.90;;;;;;6287087;28;20209;-61
2022/03/15 14:38:18;;;;;;;12.53;9.07;;;12.80;39.30;;;;;;6250928;28;20205;-60
2022/03/15 14:41:19;;;;;;;9.80;7.97;;;12.80;39.30;;;;;;6300644;28;20189;-61
2022/03/15 14:44:21;;;;;;;10.83;8.63;;;12.70;39.80;;;;;;6312204;28;20188;-60
2022/03/15 14:47:24;;;;;;;9.90;8.83;;;12.50;39.90;;;;;;6288838;28;20189;-60
2022/03/15 14:50:25;;;;;;;14.20;9.67;;;12.40;40.60;;;;;;6291514;28;20196;-60
2022/03/15 14:53:29;;;;;;;9.97;7.67;;;12.40;41.10;;;;;;6290119;28;20189;-60
2022/03/15 14:56:30;;;;;;;11.33;8.60;;;12.20;41.30;;;;;;6289542;28;20205;-61
2022/03/15 14:59:32;;;;;;;11.53;8.50;;;12.20;41.90;;;;;;6283190;28;20220;-62
2022/03/15 15:02:34;;;;;;;9.57;7.70;;;12.00;42.00;;;;;;6282284;28;20216;-62
2022/03/15 15:05:40;;;;;;;11.23;8.83;;;11.80;42.40;;;;;;6316785;28;20204;-60
2022/03/15 15:08:42;;;;;;;11.00;8.83;;;11.80;43.10;;;;;;6298468;28;20278;-61
2022/03/15 15:11:42;;;;;;;13.60;9.40;;;11.70;43.30;;;;;;6287866;28;20205;-60
2022/03/15 15:14:50;;;;;;;17.43;8.80;;;11.60;43.70;;;;;;6287749;28;20230;-60
2022/03/15 15:17:51;;;;;;;11.00;8.57;;;11.40;43.90;;;;;;6299828;28;20200;-61
2022/03/15 15:20:52;;;;;;;8.90;8.00;;;11.30;44.20;;;;;;6299382;28;20236;-61
2022/03/15 15:23:54;;;;;;;11.20;8.33;;;11.20;44.30;;;;;;6270235;28;20193;-60
2022/03/15 15:26:55;;;;;;;12.47;8.20;;;11.10;44.40;;;;;;6286270;28;20224;-60
2022/03/15 15:29:56;;;;;;;9.63;8.13;;;11.10;44.40;;;;;;6301698;28;20747;-60
2022/03/15 15:32:57;;;;;;;11.63;7.90;;;11.00;44.50;;;;;;6260502;28;20201;-60
2022/03/15 15:35:58;;;;;;;11.50;8.27;;;10.90;44.80;;;;;;6281990;28;20196;-60
2022/03/15 15:39:03;;;;;;;11.57;8.50;;;10.80;45.10;;;;;;6317953;28;20339;-61